createdAt,value
2023-04-06T00:00:38.834Z,56.0
2023-04-06T00:05:38.817Z,56.5
2023-04-06T00:10:38.808Z,56.5
2023-04-06T00:15:38.809Z,56.5
2023-04-06T00:20:38.805Z,57.0
2023-04-06T00:25:38.814Z,57.0
2023-04-06T00:30:38.816Z,57.0
2023-04-06T00:35:38.831Z,57.0
2023-04-06T00:40:38.807Z,57.5
2023-04-06T00:45:38.836Z,57.5
2023-04-06T00:50:38.819Z,58.0
2023-04-06T00:55:38.814Z,58.0
2023-04-06T01:00:38.831Z,58.0
2023-04-06T01:05:38.972Z,58.0
2023-04-06T01:10:38.827Z,58.0
2023-04-06T01:15:38.897Z,58.0
2023-04-06T01:20:38.844Z,58.5
2023-04-06T01:25:38.826Z,58.5
2023-04-06T01:30:38.833Z,58.5
2023-04-06T01:35:38.851Z,59.0
2023-04-06T01:40:38.830Z,59.0
2023-04-06T01:45:38.837Z,59.0
2023-04-06T01:50:38.842Z,59.5
2023-04-06T01:55:38.832Z,59.5
2023-04-06T02:00:38.879Z,59.5
2023-04-06T02:05:38.894Z,59.5
2023-04-06T02:10:38.838Z,59.5
2023-04-06T02:15:38.861Z,59.5
2023-04-06T02:20:38.836Z,60.0
2023-04-06T02:25:38.854Z,60.0
2023-04-06T02:30:38.839Z,60.5
2023-04-06T02:35:38.880Z,60.5
2023-04-06T02:40:38.845Z,60.5
2023-04-06T02:45:38.883Z,60.5
2023-04-06T02:50:38.849Z,60.5
2023-04-06T02:55:38.849Z,60.5
2023-04-06T03:00:38.855Z,60.5
2023-04-06T03:05:38.847Z,60.5
2023-04-06T03:10:38.850Z,60.5
2023-04-06T03:15:38.882Z,60.5
2023-04-06T03:20:38.867Z,61.0
2023-04-06T03:25:38.851Z,61.0
2023-04-06T03:30:38.868Z,61.0
2023-04-06T03:35:38.885Z,61.0
2023-04-06T03:40:38.866Z,61.0
2023-04-06T03:45:38.861Z,61.0
2023-04-06T03:50:38.860Z,61.0
2023-04-06T03:55:38.863Z,61.0
2023-04-06T04:00:38.851Z,61.0
2023-04-06T04:05:38.892Z,61.0
2023-04-06T04:10:38.874Z,61.0
2023-04-06T04:15:38.862Z,61.0
2023-04-06T04:20:38.904Z,61.5
2023-04-06T04:25:38.876Z,61.5
2023-04-06T04:30:38.870Z,61.5
2023-04-06T04:35:38.916Z,61.5
2023-04-06T04:40:38.896Z,61.5
2023-04-06T04:45:38.885Z,61.5
2023-04-06T04:50:38.885Z,61.5
2023-04-06T04:55:38.890Z,61.5
2023-04-06T05:00:38.904Z,62.0
2023-04-06T05:05:38.895Z,62.0
2023-04-06T05:10:38.898Z,61.5
2023-04-06T05:15:39.010Z,61.5
2023-04-06T05:20:38.906Z,62.0
2023-04-06T05:25:38.903Z,62.0
2023-04-06T05:30:38.915Z,62.5
2023-04-06T05:35:38.941Z,62.5
2023-04-06T05:40:38.905Z,63.0
2023-04-06T05:45:38.905Z,63.0
2023-04-06T05:50:38.900Z,63.0
2023-04-06T05:55:38.918Z,63.0
2023-04-06T06:00:38.936Z,63.0
2023-04-06T06:05:38.899Z,63.5
2023-04-06T06:10:38.905Z,63.5
2023-04-06T06:15:38.914Z,63.5
2023-04-06T06:20:38.909Z,63.5
2023-04-06T06:25:38.905Z,62.5
2023-04-06T06:30:38.917Z,62.5
2023-04-06T06:35:38.996Z,62.0
2023-04-06T06:40:39.246Z,61.5
2023-04-06T06:45:38.945Z,61.0
2023-04-06T06:50:38.942Z,61.0
2023-04-06T06:55:38.942Z,60.5
2023-04-06T07:00:38.930Z,60.5
2023-04-06T07:05:41.384Z,60.5
2023-04-06T07:10:38.955Z,60.5
2023-04-06T07:15:39.001Z,60.5
2023-04-06T07:20:38.946Z,60.0
2023-04-06T07:25:38.950Z,60.0
2023-04-06T07:30:38.948Z,59.5
2023-04-06T07:35:39.157Z,59.0
2023-04-06T07:40:38.964Z,58.5
2023-04-06T07:45:38.995Z,58.5
2023-04-06T07:50:38.956Z,58.0
2023-04-06T07:55:38.955Z,58.0
2023-04-06T08:00:38.958Z,57.5
2023-04-06T08:05:38.961Z,57.5
2023-04-06T08:10:38.968Z,57.5
2023-04-06T08:15:39.005Z,56.5
2023-04-06T08:20:38.968Z,57.0
2023-04-06T08:25:38.868Z,57.5
2023-04-06T08:30:38.867Z,57.0
2023-04-06T08:35:38.893Z,57.0
2023-04-06T08:40:38.884Z,56.0
2023-04-06T08:45:38.876Z,56.0
2023-04-06T08:50:38.876Z,55.5
2023-04-06T08:55:38.870Z,56.0
2023-04-06T09:00:38.890Z,55.0
2023-04-06T09:05:38.890Z,55.0
2023-04-06T09:10:38.889Z,55.0
2023-04-06T09:15:38.889Z,55.0
2023-04-06T09:20:38.928Z,54.5
2023-04-06T09:25:38.905Z,54.0
2023-04-06T09:30:38.897Z,54.5
2023-04-06T09:35:38.928Z,54.0
2023-04-06T09:40:45.601Z,53.0
2023-04-06T09:45:38.906Z,52.5
2023-04-06T09:50:38.909Z,53.0
2023-04-06T09:55:38.898Z,53.0
2023-04-06T10:00:38.959Z,53.0
2023-04-06T10:05:38.917Z,53.0
2023-04-06T10:10:38.948Z,52.5
2023-04-06T10:15:38.923Z,52.5
2023-04-06T10:20:38.930Z,52.5
2023-04-06T10:25:38.956Z,52.5
2023-04-06T10:30:38.928Z,52.5
2023-04-06T10:35:38.972Z,52.5
2023-04-06T10:40:38.943Z,52.5
2023-04-06T10:45:38.967Z,52.5
2023-04-06T10:50:38.936Z,52.5
2023-04-06T10:55:38.936Z,53.0
2023-04-06T11:00:49.606Z,54.0
2023-04-06T11:05:38.942Z,54.5
2023-04-06T11:10:38.941Z,55.5
2023-04-06T11:20:38.940Z,57.0
2023-04-06T11:25:39.282Z,58.0
2023-04-06T11:30:38.978Z,58.0
2023-04-06T11:35:39.014Z,58.5
2023-04-06T11:40:38.952Z,59.0
2023-04-06T11:45:38.943Z,59.5
2023-04-06T11:50:38.952Z,60.0
2023-04-06T11:55:38.951Z,60.5
2023-04-06T12:00:38.951Z,61.0
2023-04-06T12:05:38.956Z,61.5
2023-04-06T12:10:38.996Z,62.5
2023-04-06T12:15:38.985Z,63.5
2023-04-06T12:20:38.965Z,64.5
2023-04-06T12:25:38.963Z,65.0
2023-04-06T12:30:38.957Z,65.5
2023-04-06T12:35:38.961Z,66.5
2023-04-06T12:40:38.970Z,67.5
2023-04-06T12:45:38.961Z,68.5
2023-04-06T12:50:38.970Z,68.5
2023-04-06T12:55:38.977Z,68.5
2023-04-06T13:00:39.093Z,69.0
2023-04-06T13:05:38.973Z,70.0
2023-04-06T13:10:38.972Z,70.0
2023-04-06T13:15:38.970Z,69.5
2023-04-06T13:20:38.972Z,70.0
2023-04-06T13:25:38.987Z,71.0
2023-04-06T13:30:38.984Z,71.0
2023-04-06T13:35:38.983Z,71.5
2023-04-06T13:40:38.983Z,72.0
2023-04-06T13:45:39.027Z,72.5
2023-04-06T13:50:39.002Z,72.5
2023-04-06T13:55:38.993Z,73.0
2023-04-06T14:00:39.066Z,74.0
2023-04-06T14:05:39.005Z,74.0
2023-04-06T14:10:38.990Z,74.0
2023-04-06T14:15:39.013Z,74.5
2023-04-06T14:20:38.999Z,74.5
2023-04-06T14:25:38.998Z,75.5
2023-04-06T14:30:39.045Z,76.0
2023-04-06T14:35:38.998Z,77.0
2023-04-06T14:40:39.006Z,78.0
2023-04-06T14:45:39.154Z,78.5
2023-04-06T14:50:39.006Z,79.0
2023-04-06T14:55:39.006Z,79.5
2023-04-06T15:00:39.008Z,80.5
2023-04-06T15:10:39.021Z,81.5
2023-04-06T15:15:39.108Z,81.5
2023-04-06T15:20:39.019Z,81.5
2023-04-06T15:25:39.011Z,82.0
2023-04-06T15:30:39.018Z,83.0
2023-04-06T15:35:39.065Z,83.0
2023-04-06T15:40:39.018Z,84.0
2023-04-06T15:45:39.022Z,84.0
2023-04-06T15:50:39.055Z,85.5
2023-04-06T16:00:39.056Z,85.5
2023-04-06T16:05:48.424Z,85.5
2023-04-06T16:10:39.030Z,86.0
2023-04-06T16:15:39.088Z,86.5
2023-04-06T16:20:39.134Z,86.0
2023-04-06T16:25:39.063Z,87.0
2023-04-06T16:30:39.435Z,86.5
2023-04-06T16:35:39.066Z,87.0
2023-04-06T16:40:39.038Z,88.0
2023-04-06T16:45:39.082Z,87.5
2023-04-06T16:50:39.178Z,88.0
2023-04-06T16:55:39.052Z,89.0
2023-04-06T17:05:39.171Z,91.0
2023-04-06T17:15:39.068Z,92.0
2023-04-06T17:20:39.153Z,91.5
2023-04-06T17:25:39.184Z,91.5
2023-04-06T17:30:39.247Z,92.0
2023-04-06T17:35:39.179Z,92.0
2023-04-06T17:45:39.162Z,93.0
2023-04-06T17:50:39.177Z,93.5
2023-04-06T17:55:39.169Z,93.5
2023-04-06T18:00:39.170Z,93.5
2023-04-06T18:05:39.064Z,94.0
2023-04-06T18:15:39.193Z,94.0
2023-04-06T18:20:39.092Z,93.5
2023-04-06T18:25:39.079Z,93.5
2023-04-06T18:30:39.092Z,93.5
2023-04-06T18:40:39.107Z,93.5
2023-04-06T18:45:39.078Z,93.5
2023-04-06T18:50:39.082Z,93.5
2023-04-06T18:55:39.083Z,93.5
2023-04-06T19:00:39.126Z,93.5
2023-04-06T19:05:39.092Z,93.5
2023-04-06T19:10:39.093Z,93.5
2023-04-06T19:15:39.102Z,93.5
2023-04-06T19:20:39.101Z,93.0
2023-04-06T19:25:39.104Z,93.5
2023-04-06T19:30:39.114Z,93.0
2023-04-06T19:35:39.098Z,93.0
2023-04-06T19:40:39.103Z,92.5
2023-04-06T19:45:39.104Z,93.0
2023-04-06T19:50:39.110Z,93.0
2023-04-06T19:55:39.114Z,93.0
2023-04-06T20:00:39.107Z,92.5
2023-04-06T20:05:39.105Z,92.5
2023-04-06T20:10:39.121Z,92.5
2023-04-06T20:15:39.108Z,92.5
2023-04-06T20:20:39.120Z,92.5
2023-04-06T20:25:39.126Z,92.0
2023-04-06T20:30:39.116Z,92.0
2023-04-06T20:35:39.137Z,91.5
2023-04-06T20:40:39.124Z,92.0
2023-04-06T20:45:39.135Z,92.0
2023-04-06T20:50:39.127Z,92.0
2023-04-06T20:55:39.337Z,91.5
2023-04-06T21:00:39.129Z,91.5
2023-04-06T21:05:39.164Z,91.5
2023-04-06T21:10:39.142Z,91.5
2023-04-06T21:15:39.163Z,91.5
2023-04-06T21:20:39.142Z,91.5
2023-04-06T21:25:39.154Z,91.5
2023-04-06T21:30:39.147Z,91.5
2023-04-06T21:35:39.152Z,91.5
2023-04-06T21:40:39.151Z,91.5
2023-04-06T21:45:39.152Z,91.5
2023-04-06T21:50:39.153Z,91.5
2023-04-06T21:55:39.146Z,91.5
2023-04-06T22:00:39.155Z,91.5
2023-04-06T22:05:39.153Z,91.5
2023-04-06T22:10:39.152Z,92.0
2023-04-06T22:15:39.147Z,92.0
2023-04-06T22:20:39.158Z,92.0
2023-04-06T22:25:39.466Z,92.0
2023-04-06T22:30:39.166Z,92.5
2023-04-06T22:35:39.220Z,92.5
2023-04-06T22:40:39.480Z,92.5
2023-04-06T22:45:39.160Z,92.5
2023-04-06T22:50:39.190Z,92.5
2023-04-06T22:55:39.168Z,93.0
2023-04-06T23:00:39.169Z,93.0
2023-04-06T23:10:39.174Z,93.0
2023-04-06T23:15:39.185Z,93.5
2023-04-06T23:20:39.186Z,93.5
2023-04-06T23:25:39.185Z,93.5
2023-04-06T23:30:39.222Z,93.5
2023-04-06T23:35:39.191Z,93.5
2023-04-06T23:40:39.183Z,93.5
2023-04-06T23:45:39.191Z,93.5
2023-04-06T23:50:39.189Z,93.0
2023-04-06T23:55:39.193Z,93.0
